Latest Coastal Weather Observations for Tewantin

IDQ60701

Issued at 10:12 pm EST Friday 29 April 2016 (issued every 10 minutes, with the page automatically refreshed every 10 minutes)

About coastal observations | Map of coastal stations | Coastal observations for QLD | Marine services | Other Formats
Station Details ID: 040908 Name: TEWANTIN RSL PARK Lat: -26.39 Lon: 153.04 Height: 6.4 m
Data from the previous 72 hours. | See also: Recent months at Tewantin
Date/Time
EST
Temp

°C
Wind Pressure Rain
since 9am
mm
Weather Cloud Vis
km
Sea
Height
m
Swell
Dir
 
Speed
knots
Gust
knots
hPa Trend Height
m
Period
s
Dir
29/10:00pm 21.8 SSW 4 5 1021.7 - 0.0 - - - - - - -
29/09:30pm 22.0 WSW 3 4 1021.8 - 0.0 - - - - - - -
29/09:00pm 22.0 SW 4 5 1021.7 - 0.0 - - - - - - -
29/08:30pm 22.1 WNW 5 8 1021.7 - 0.0 - - - - - - -
29/08:00pm 22.5 SSW 5 7 1021.5 - 0.0 - - - - - - -
29/07:30pm 23.1 CALM 0 3 1021.3 - 0.0 - - - - - - -
29/07:00pm 23.2 ESE 4 6 1021.0 - 0.0 - - - - - - -
29/06:30pm 23.5 E 5 7 1020.7 - 0.0 - - - - - - -
29/06:00pm 23.8 E 4 6 1020.6 - 0.0 - - - - - - -
29/05:30pm 23.9 ESE 5 9 1020.2 - 0.0 - - - - - - -
29/05:00pm 24.1 ESE 6 8 1020.1 - 0.0 - - - - - - -
29/04:30pm 24.2 ESE 7 11 1019.7 - 0.0 - - - - - - -
29/04:00pm 24.3 E 7 10 1019.5 - 0.0 - - - - - - -
29/03:30pm 24.1 ENE 7 12 1019.5 - 0.0 - - - - - - -
29/03:00pm 24.5 ESE 10 15 1019.6 - 0.0 - - - - - - -
29/02:30pm 24.5 SE 6 10 1019.7 - 0.0 - - - - - - -
29/02:00pm 24.3 S 5 7 1019.7 - 0.0 - - - - - - -
29/01:30pm 24.7 SE 5 8 1019.9 - 0.0 - - - - - - -
29/01:00pm 24.2 SE 5 9 1020.2 - 0.0 - - - - - - -
29/12:30pm 25.0 SE 5 10 1020.5 - 0.0 - - - - - - -
29/12:00pm 24.5 SSW 5 8 1021.1 - 0.0 - - - - - - -
29/11:30am 23.1 S 7 11 1021.7 - 0.0 - - - - - - -
29/11:00am 22.9 SSW 6 9 1022.5 - 0.0 - - - - - - -
29/10:30am 23.0 S 7 10 1023.0 - 0.0 - - - - - - -
29/10:00am 22.7 S 8 11 1023.2 - 0.0 - - - - - - -
29/09:30am 22.0 S 7 11 1023.4 - 0.0 - - - - - - -
29/09:00am 21.9 S 7 12 1023.3 - 5.6 - - - - - - -
29/08:30am 21.4 S 6 11 1023.1 - 5.6 - - - - - - -
29/08:00am 20.9 SSW 6 8 1022.9 - 5.6 - - - - - - -
29/07:30am 20.2 S 6 9 1022.8 - 5.4 - - - - - - -
29/07:00am 20.1 S 5 8 1022.6 - 4.8 - - - - - - -
29/06:30am 20.1 S 6 9 1022.2 - 4.2 - - - - - - -
29/06:00am 20.0 S 4 7 1022.1 - 4.0 - - - - - - -
29/05:30am 19.9 S 6 8 1021.7 - 4.0 - - - - - - -
29/05:00am 19.9 SSW 6 8 1021.6 - 4.0 - - - - - - -
29/04:30am 20.0 SSW 6 9 1021.3 - 4.0 - - - - - - -
29/04:00am 19.9 SSW 6 8 1021.3 - 4.0 - - - - - - -
29/03:30am 19.8 S 5 8 1021.2 - 3.8 - - - - - - -
29/03:00am 19.7 SSW 6 8 1021.3 - 3.8 - - - - - - -
29/02:30am 20.0 SSW 5 7 1021.4 - 3.8 - - - - - - -
29/02:00am 19.8 S 5 9 1021.9 - 3.8 - - - - - - -
29/01:30am 19.9 SSW 4 6 1021.8 - 3.8 - - - - - - -
29/01:00am 20.3 SSW 5 7 1021.9 - 0.8 - - - - - - -
29/12:30am 20.3 SSW 5 7 1022.1 - 0.8 - - - - - - -
29/12:00am 20.3 SSW 5 7 1022.3 - 0.8 - - - - - - -
 
Date/Time
EST
Temp

°C
Wind Pressure Rain
since 9am
mm
Weather Cloud Vis
km
Sea
Height
m
Swell
Dir
 
Speed
knots
Gust
knots
hPa Trend Height
m
Period
s
Dir
28/11:30pm 20.2 SSW 5 7 1022.5 - 0.8 - - - - - - -
28/11:00pm 19.8 SW 1 4 1022.8 - 0.8 - - - - - - -
28/10:30pm 20.0 SSW 3 5 1022.9 - 0.8 - - - - - - -
28/10:00pm 20.1 SSW 3 5 1023.1 - 0.8 - - - - - - -
28/09:30pm 20.2 SSW 2 4 1023.1 - 0.8 - - - - - - -
28/09:00pm 20.5 SW 3 5 1023.0 - 0.8 - - - - - - -
28/08:30pm 20.7 SW 3 4 1023.0 - 0.8 - - - - - - -
28/08:00pm 21.2 SSW 3 5 1022.8 - 0.8 - - - - - - -
28/07:30pm 21.4 SSW 4 6 1022.7 - 0.8 - - - - - - -
28/07:00pm 21.5 S 5 7 1022.6 - 0.8 - - - - - - -
28/06:30pm 21.7 SSW 5 7 1022.3 - 0.8 - - - - - - -
28/06:00pm 22.2 SSW 4 6 1022.1 - 0.8 - - - - - - -
28/05:30pm 22.4 S 4 6 1021.9 - 0.8 - - - - - - -
28/05:00pm 23.9 ESE 6 12 1021.7 - 0.8 - - - - - - -
28/04:30pm 22.3 SSW 4 7 1021.3 - 0.8 - - - - - - -
28/04:00pm 23.1 SSE 4 7 1021.3 - 0.8 - - - - - - -
28/03:30pm 22.7 ESE 4 6 1021.1 - 0.8 - - - - - - -
28/03:00pm 23.7 NE 6 9 1021.0 - 0.6 - - - - - - -
28/02:30pm 25.0 ESE 7 11 1020.9 - 0.6 - - - - - - -
28/02:00pm 25.2 E 8 14 1020.8 - 0.6 - - - - - - -
28/01:30pm 23.0 E 7 12 1021.0 - 0.6 - - - - - - -
28/01:00pm 25.6 ESE 9 13 1021.1 - 0.2 - - - - - - -
28/12:30pm 24.2 ESE 8 15 1021.4 - 0.2 - - - - - - -
28/12:00pm 25.6 E 10 16 1021.8 - 0.2 Recent precip. - - - - - -
28/11:30am 25.6 ESE 9 15 1022.1 - 0.2 - - - - - - -
28/11:00am 25.4 ESE 9 15 1022.5 - 0.0 - - - - - - -
28/10:30am 24.6 E 8 13 1022.9 - 0.0 - - - - - - -
28/10:00am 24.4 ESE 10 15 1023.0 - 0.0 - - - - - - -
28/09:30am 24.5 ESE 9 13 1023.0 - 0.0 - - - - - - -
28/09:00am 22.5 SSW 5 7 1023.0 - 2.2 - - - - - - -
28/08:30am 21.3 SSW 5 7 1022.9 - 2.2 - - - - - - -
28/08:00am 20.7 SSW 5 9 1022.6 - 2.2 - - - - - - -
28/07:30am 19.9 S 2 5 1022.5 - 2.0 - - - - - - -
28/07:00am 19.5 S 4 5 1022.0 - 2.0 - - - - - - -
28/06:30am 19.3 S 5 7 1021.8 - 2.0 - - - - - - -
28/06:00am 19.2 S 5 8 1021.7 - 2.0 - - - - - - -
28/05:30am 19.1 S 5 8 1021.6 - 2.0 - - - - - - -
28/05:00am 19.2 S 6 9 1021.3 - 2.0 - - - - - - -
28/04:30am 19.2 S 6 9 1021.3 - 1.8 - - - - - - -
28/04:00am 19.1 S 5 7 1021.3 - 1.8 - - - - - - -
28/03:30am 19.0 S 5 7 1021.1 - 1.8 - - - - - - -
28/03:00am 19.5 S 7 10 1021.1 - 1.8 - - - - - - -
28/02:30am 19.4 SSW 5 8 1021.3 - 1.8 - - - - - - -
28/02:00am 19.3 SSW 6 8 1021.5 - 1.8 - - - - - - -
28/01:30am 19.4 SSW 5 8 1021.6 - 1.8 - - - - - - -
28/01:00am 19.5 SSW 5 8 1021.9 - 1.8 - - - - - - -
28/12:30am 19.7 S 6 8 1021.8 - 1.8 - - - - - - -
28/12:00am 19.9 SSW 6 9 1021.9 - 1.8 - - - - - - -
 
Date/Time
EST
Temp

°C
Wind Pressure Rain
since 9am
mm
Weather Cloud Vis
km
Sea
Height
m
Swell
Dir
 
Speed
knots
Gust
knots
hPa Trend Height
m
Period
s
Dir
27/11:30pm 20.0 SSW 5 8 1022.1 - 1.8 - - - - - - -
27/11:00pm 20.0 SSW 5 7 1022.4 - 1.8 - - - - - - -
27/10:30pm 20.1 SSW 4 7 1022.4 - 1.8 - - - - - - -
27/10:00pm 20.2 SSW 7 9 1022.4 - 1.8 - - - - - - -
27/09:30pm 20.4 SSW 6 8 1022.5 - 1.8 - - - - - - -
27/09:00pm 20.6 SSW 7 10 1022.5 - 1.8 - - - - - - -
27/08:30pm 20.7 SSW 5 7 1022.4 - 1.8 - - - - - - -
27/08:00pm 20.8 S 6 9 1022.3 - 1.8 - - - - - - -
27/07:30pm 21.3 S 7 10 1022.2 - 1.8 - - - - - - -
27/07:00pm 21.7 S 6 10 1021.9 - 1.8 - - - - - - -
27/06:30pm 23.0 SSE 5 8 1021.6 - 1.8 - - - - - - -
27/06:00pm 22.9 SE 5 8 1021.4 - 1.8 - - - - - - -
27/05:30pm 23.1 SE 6 9 1021.1 - 1.8 - - - - - - -
27/05:00pm 23.5 SE 7 12 1020.9 - 1.8 - - - - - - -
27/04:30pm 24.0 SE 7 12 1020.8 - 1.8 - - - - - - -
27/04:00pm 24.1 ESE 9 15 1020.6 - 1.8 - - - - - - -
27/03:30pm 24.1 SE 9 15 1020.3 - 1.8 - - - - - - -
27/03:00pm 23.8 SE 7 14 1020.3 - 1.8 - - - - - - -
27/02:30pm 23.6 SSE 6 11 1020.3 - 1.8 - - - - - - -
27/02:00pm 22.9 SSE 6 13 1020.5 - 1.8 - - - - - - -
27/01:30pm 22.9 SSE 7 13 1020.5 - 1.8 - - - - - - -
27/01:00pm 22.0 S 7 14 1020.8 - 1.8 - - - - - - -
27/12:30pm 23.2 S 9 14 1021.2 - 1.6 - - - - - - -
27/12:00pm 23.4 SE 8 14 1021.7 - 1.6 - - - - - - -
27/11:30am 22.7 SE 10 16 1022.1 - 1.6 - - - - - - -
27/11:00am 22.4 SSE 5 9 1022.5 - 1.6 - - - - - - -
27/10:30am 21.2 ESE 5 8 1023.1 - 1.0 - - - - - - -
27/10:00am 20.8 E 12 18 1023.5 - 0.6 - - - - - - -
27/09:30am 22.6 SE 11 22 1023.3 - 0.0 - - - - - - -
27/09:00am 23.7 SE 11 19 1023.1 - 2.4 - - - - - - -
27/08:30am 23.7 SE 10 16 1022.9 - 2.4 - - - - - - -
27/08:00am 24.1 SE 12 21 1022.8 - 2.4 - - - - - - -
27/07:30am 23.8 ESE 10 15 1022.5 - 2.4 - - - - - - -
27/07:00am 23.1 SE 10 15 1022.2 - 2.4 - - - - - - -
27/06:30am 22.7 SE 10 17 1021.9 - 2.4 - - - - - - -
27/06:00am 22.5 SE 8 16 1021.7 - 2.4 - - - - - - -
27/05:30am 22.0 ESE 12 18 1021.4 - 2.4 - - - - - - -
27/05:00am 22.1 ESE 12 19 1021.3 - 2.4 - - - - - - -
27/04:30am 22.0 ESE 13 19 1021.3 - 2.4 - - - - - - -
27/04:00am 22.8 SE 11 20 1021.1 - 2.4 - - - - - - -
27/03:30am 22.2 SE 8 14 1021.0 - 2.4 - - - - - - -
27/03:00am 21.2 SSE 8 11 1021.3 - 2.4 - - - - - - -
27/02:30am 22.1 SE 9 18 1021.5 - 2.4 - - - - - - -
27/02:00am 22.2 SE 8 13 1021.8 - 2.4 - - - - - - -
27/01:30am 22.1 SE 9 15 1021.9 - 2.4 - - - - - - -
27/01:00am 20.8 SSE 6 9 1022.2 - 2.4 - - - - - - -
27/12:30am 20.8 SE 11 20 1022.4 - 2.4 - - - - - - -
27/12:00am 21.3 SE 7 12 1022.5 - 2.2 Recent precip. - - - - - -
 
Date/Time
EST
Temp

°C
Wind Pressure Rain
since 9am
mm
Weather Cloud Vis
km
Sea
Height
m
Swell
Dir
 
Speed
knots
Gust
knots
hPa Trend Height
m
Period
s
Dir
26/11:30pm 21.5 SSE 7 12 1022.7 - 2.0 - - - - - - -
26/11:00pm 20.7 SSE 8 15 1022.9 - 2.0 - - - - - - -
26/10:30pm 21.3 SSE 8 16 1023.0 - 1.0 - - - - - - -

Other Formats:

Comma delimited format used in spreadsheet applications
http://www.bom.gov.au/fwo/IDQ60701/IDQ60701.94570.axf

JavaScript Object Notation format (JSON) in row-major order
http://www.bom.gov.au/fwo/IDQ60701/IDQ60701.94570.json